CheckWX is a tool to help pilots better visualize weather data.  It is not intended as a substitute for an official pre-flight weather briefing.

16:17:52 UTC

KRVS METAR
Richard Lloyd Jones Jr Airport
Tulsa, Oklahoma, USA
Current

18 mins ago

KRVS 261600Z 10006KT 10SM BKN021 BKN025 OVC100 25/21 A3010 RMK AO2 T02500211
Observed
May-26 @ 16:00 UTC
Wind
  • 100° at 6 KTS
Visibility
10 SM
Flight Rules
MVFR
Cloud Levels
  • Broken at 2,100' AGL
  • Broken at 2,500' AGL
  • Overcast at 10,000' AGL
Temperature
25°C / 77°F
Dewpoint
21°C / 70°F
Humidity
79%
Altimeter
30.1" Hg
Pressure
1019.32 hPa
Previous

25 mins ago

KRVS 261553Z 00000KT 10SM SCT019 SCT025 BKN100 26/21 A3010 RMK AO2 SLP197 T02560206
Observed
May-26 @ 15:53 UTC
Visibility
10 SM
Flight Rules
VFR
Cloud Levels
  • Scattered at 1,900' AGL
  • Scattered at 2,500' AGL
  • Broken at 10,000' AGL
Temperature
26°C / 79°F
Dewpoint
21°C / 70°F
Humidity
74%
Altimeter
30.1" Hg
Pressure
1019.32 hPa
Previous

1 hour ago

KRVS 261453Z 17009KT 10SM BKN100 24/20 A3007 RMK AO2 SLP187 T02390200 50011
Observed
May-26 @ 14:53 UTC
Wind
  • 170° at 9 KTS
Visibility
10 SM
Flight Rules
VFR
Cloud Levels
  • Broken at 10,000' AGL
Temperature
24°C / 75°F
Dewpoint
20°C / 68°F
Humidity
78%
Altimeter
30.07" Hg
Pressure
1018.32 hPa